Mint Spring, Virginia
Current Conditions -  °F | °C
As of 11:15 AM on Monday 24 Nov 2014 (Local Time) from KW13 Reporting Station
Scattered Clouds Scattered Clouds  
Wind Chill: 64°   Ceiling: Unl
Heat Index: 64°   Visibility: 10mi
Dew Point: 52°   Wind: 8mph
Humidity: 65%   Direction: 180°S
Pressure: 29.69"   Gusts: NA
Location:  38.07°N, 79.1°W
Report Text: KW13 241615Z AUTO 18007KT 10SM SCT033 18/11 A2969 RMK AO1 T01780111
Loading
Personal Weather Stations






























Interactive Weather Map New forecast layout! Learn more

10-Day Weather Forecast

Advertisements
Track Severe Weather on mobile